Darstellungsparameter: Aktuell verwendete Einstellungen:
Skalierung der Graphiken ... ?
xyx+y,   Skalierungsfaktor:      Skalierung: Modus: x, Faktor: 1
Darstellungszeitraum ... ?
Vom - - bis: - -   Zeitraum: 16.08.2022 - 16.08.2022
Min/Max/Avg-Anzeige ... ?
Zeige MMA aktuell
Zeige MMA Monat
Zeige MMA alles
Zeige --A aktuell
Zeige --A Monat
Zeige --A alles
Keine MMA-Anzeige
MMA:
Keine MMA-Graphiken
MMA-Basis: 16.08.2022 - 16.08.2022
Quicknavigation für Darstellung... ?
Tage:      1T, 2T, 3T, 5T -1T -2T -3T -5T +1T +2T +3T +5T
Wochen: 1W, 2W, 3W -1W -2W -3W +1W +2W +3W
Monate: 1M, 3M, 6M -1M -3M -6M +1M +3M +6M
Jahre:    1J, 3J, 5J, 10J -1J -3J -5J -10J +1J +3J +5J +10J
Nutze für die Darstellung ... ?
Originaldaten oder Mittelwerte auf ...
Stundenbasis Tagesbasis Wochenbasis
Monatsbasis Jahresbasis      Datenbasis: Original-Daten
Darstellen als:
Statistik (Auto) Statistik J:M      Darstellung:
Zur Graphik,    zurück zur Übersicht aller Sensoren.
 
Tabellarische Datenbersicht: ?
 
Sensor: Nr:Datum:Temp:Abs-Feuchte:Windchill:Wind:
Aussen-T/F 1 16-08-2022 02:00:00 17.7 C 12.67 g/m*3 17.7 C 0 km/h
2 16-08-2022 02:05:00 17.6 C 12.6 g/m*3 17.6 C 0 km/h
3 16-08-2022 02:10:00 17.4 C 12.6 g/m*3 17.4 C 0 km/h
4 16-08-2022 02:15:00 17.3 C 12.52 g/m*3 17.3 C 0 km/h
5 16-08-2022 02:20:00 17.2 C 12.45 g/m*3 17.2 C 0 km/h
6 16-08-2022 02:25:00 17.1 C 12.37 g/m*3 17.1 C 0 km/h
7 16-08-2022 02:30:00 17 C 12.44 g/m*3 17 C 0 km/h
8 16-08-2022 02:35:00 16.9 C 12.37 g/m*3 16.9 C 1.6 km/h
9 16-08-2022 02:40:00 16.8 C 12.44 g/m*3 16.8 C 1.6 km/h
10 16-08-2022 02:45:00 16.8 C 12.58 g/m*3 16.8 C 1.6 km/h
11 16-08-2022 02:50:00 16.9 C 12.66 g/m*3 16.9 C 0 km/h
12 16-08-2022 02:55:00 16.8 C 12.58 g/m*3 16.8 C 0 km/h
13 16-08-2022 03:00:00 16.8 C 12.58 g/m*3 16.8 C 0 km/h
14 16-08-2022 03:05:00 16.8 C 12.58 g/m*3 16.8 C 0 km/h
15 16-08-2022 03:10:00 16.7 C 12.51 g/m*3 16.7 C 0 km/h
16 16-08-2022 03:15:00 16.6 C 12.43 g/m*3 16.6 C 0 km/h
17 16-08-2022 03:20:00 16.6 C 12.57 g/m*3 16.6 C 1.6 km/h
18 16-08-2022 03:25:00 16.5 C 12.5 g/m*3 16.5 C 0 km/h
19 16-08-2022 03:30:00 16.4 C 12.42 g/m*3 16.4 C 0 km/h
20 16-08-2022 03:35:00 16.4 C 12.42 g/m*3 16.4 C 0 km/h
21 16-08-2022 03:40:00 16.4 C 12.42 g/m*3 16.4 C 0 km/h
22 16-08-2022 03:45:00 16.4 C 12.56 g/m*3 16.4 C 1.6 km/h
23 16-08-2022 03:50:00 16.3 C 12.49 g/m*3 16.3 C 0 km/h
24 16-08-2022 03:55:00 16.3 C 12.49 g/m*3 16.3 C 1.6 km/h
25 16-08-2022 04:00:00 16.3 C 12.49 g/m*3 16.3 C 0 km/h
Sensor: Nr:Datum:Temp:Abs-Feuchte:Windchill:Wind:
Aussen-T/F 26 16-08-2022 04:05:00 16.3 C 12.49 g/m*3 16.3 C 0 km/h
27 16-08-2022 04:10:00 16.2 C 12.41 g/m*3 16.2 C 0 km/h
28 16-08-2022 04:15:00 16.2 C 12.55 g/m*3 16.2 C 0 km/h
29 16-08-2022 04:20:00 16.2 C 12.55 g/m*3 16.2 C 0 km/h
30 16-08-2022 04:25:00 16.2 C 12.55 g/m*3 16.2 C 1.6 km/h
31 16-08-2022 04:30:00 16.2 C 12.55 g/m*3 16.2 C 1.6 km/h
32 16-08-2022 04:35:00 16.2 C 12.55 g/m*3 16.2 C 0 km/h
33 16-08-2022 04:40:00 16.2 C 12.55 g/m*3 16.2 C 1.6 km/h
34 16-08-2022 04:45:00 16.1 C 12.47 g/m*3 16.1 C 0 km/h
35 16-08-2022 04:50:00 16.1 C 12.61 g/m*3 16.1 C 0 km/h
36 16-08-2022 04:55:00 16.1 C 12.61 g/m*3 16.1 C 0 km/h
37 16-08-2022 05:00:00 16.1 C 12.61 g/m*3 16.1 C 0 km/h
38 16-08-2022 05:05:00 16 C 12.4 g/m*3 16 C 0 km/h
39 16-08-2022 05:10:00 15.9 C 12.32 g/m*3 15.9 C 0 km/h
40 16-08-2022 05:15:00 15.9 C 12.32 g/m*3 15.9 C 0 km/h
41 16-08-2022 05:20:00 15.9 C 12.46 g/m*3 15.9 C 0 km/h
42 16-08-2022 05:25:00 15.9 C 12.46 g/m*3 15.9 C 0 km/h
43 16-08-2022 05:30:00 15.9 C 12.46 g/m*3 15.9 C 0 km/h
44 16-08-2022 05:35:00 15.9 C 12.46 g/m*3 15.9 C 0 km/h
45 16-08-2022 05:40:00 15.9 C 12.46 g/m*3 15.9 C 0 km/h
46 16-08-2022 05:45:00 15.9 C 12.46 g/m*3 15.9 C 0 km/h
47 16-08-2022 05:50:00 16 C 12.53 g/m*3 16 C 0 km/h
48 16-08-2022 05:55:00 16.1 C 12.75 g/m*3 16.1 C 0 km/h
49 16-08-2022 06:00:00 16.1 C 12.75 g/m*3 16.1 C 0 km/h
50 16-08-2022 06:05:00 16.2 C 12.82 g/m*3 16.2 C 0 km/h
Sensor: Nr:Datum:Temp:Abs-Feuchte:Windchill:Wind:
Aussen-T/F 51 16-08-2022 06:10:00 16.2 C 12.82 g/m*3 16.2 C 0 km/h
52 16-08-2022 06:15:00 16.2 C 12.82 g/m*3 16.2 C 0 km/h
53 16-08-2022 06:20:00 16.2 C 12.82 g/m*3 16.2 C 0 km/h
54 16-08-2022 06:25:00 16.2 C 12.82 g/m*3 16.2 C 0 km/h
55 16-08-2022 06:30:00 16.2 C 12.82 g/m*3 16.2 C 0 km/h
56 16-08-2022 06:35:00 16.2 C 12.82 g/m*3 16.2 C 0 km/h
57 16-08-2022 06:40:00 16.2 C 12.69 g/m*3 16.2 C 0 km/h
58 16-08-2022 06:45:00 16.2 C 12.69 g/m*3 16.2 C 0 km/h
59 16-08-2022 06:50:00 16.1 C 12.61 g/m*3 16.1 C 0 km/h
60 16-08-2022 06:55:00 16.1 C 12.61 g/m*3 16.1 C 0 km/h
61 16-08-2022 07:00:00 16.1 C 12.75 g/m*3 16.1 C 0 km/h
62 16-08-2022 07:05:00 16.1 C 12.75 g/m*3 16.1 C 0 km/h
63 16-08-2022 07:10:00 16.1 C 12.75 g/m*3 16.1 C 0 km/h
64 16-08-2022 07:15:00 16.1 C 12.75 g/m*3 16.1 C 0 km/h
65 16-08-2022 07:20:00 16.1 C 12.75 g/m*3 16.1 C 0 km/h
66 16-08-2022 07:25:00 16.1 C 12.75 g/m*3 16.1 C 0 km/h
67 16-08-2022 07:30:00 16.1 C 12.75 g/m*3 16.1 C 0 km/h
68 16-08-2022 07:35:00 16.2 C 12.82 g/m*3 16.2 C 0 km/h
69 16-08-2022 07:40:00 16.2 C 12.82 g/m*3 16.2 C 0 km/h
70 16-08-2022 07:45:00 16.3 C 12.9 g/m*3 16.3 C 0 km/h
71 16-08-2022 07:50:00 16.3 C 12.9 g/m*3 16.3 C 0 km/h
72 16-08-2022 07:55:00 16.4 C 12.98 g/m*3 16.4 C 0 km/h
73 16-08-2022 08:00:00 16.4 C 12.98 g/m*3 16.4 C 0 km/h
74 16-08-2022 08:05:00 16.5 C 13.06 g/m*3 16.5 C 0 km/h
75 16-08-2022 08:10:00 16.5 C 13.06 g/m*3 16.5 C 0 km/h
Sensor: Nr:Datum:Temp:Abs-Feuchte:Windchill:Wind:
Aussen-T/F 76 16-08-2022 08:15:00 16.6 C 13.28 g/m*3 16.6 C 0 km/h
77 16-08-2022 08:20:00 16.7 C 13.36 g/m*3 16.7 C 0 km/h
78 16-08-2022 08:25:00 16.9 C 13.52 g/m*3 16.9 C 4.8 km/h
79 16-08-2022 08:30:00 17.4 C 14.08 g/m*3 17.4 C 4.8 km/h
80 16-08-2022 08:35:00 17.8 C 14.27 g/m*3 17.8 C 4.8 km/h
81 16-08-2022 08:40:00 18.2 C 14.3 g/m*3 18.2 C 9.7 km/h
82 16-08-2022 08:45:00 18.5 C 14.4 g/m*3 18.5 C 11.3 km/h
83 16-08-2022 08:50:00 18.8 C 14.49 g/m*3 18.8 C 11.3 km/h
84 16-08-2022 08:55:00 19 C 14.5 g/m*3 19 C 9.7 km/h
85 16-08-2022 09:00:00 19.2 C 14.35 g/m*3 19.2 C 9.7 km/h
86 16-08-2022 09:05:00 19.4 C 14.35 g/m*3 19.4 C 9.7 km/h
87 16-08-2022 09:10:00 19.5 C 14.43 g/m*3 19.5 C 12.9 km/h
88 16-08-2022 09:15:00 19.6 C 14.35 g/m*3 19.6 C 8.1 km/h
89 16-08-2022 09:20:00 19.6 C 14.35 g/m*3 19.6 C 8.1 km/h
90 16-08-2022 09:25:00 19.6 C 14.18 g/m*3 19.6 C 12.9 km/h
91 16-08-2022 09:30:00 19.7 C 14.26 g/m*3 19.7 C 9.7 km/h
92 16-08-2022 09:35:00 19.7 C 14.26 g/m*3 19.7 C 12.9 km/h
93 16-08-2022 09:40:00 19.8 C 14.35 g/m*3 19.8 C 8.1 km/h
94 16-08-2022 09:45:00 19.8 C 14.35 g/m*3 19.8 C 8.1 km/h
95 16-08-2022 09:50:00 19.9 C 14.26 g/m*3 19.9 C 8.1 km/h
96 16-08-2022 09:55:00 20.1 C 14.43 g/m*3 20.1 C 4.8 km/h
97 16-08-2022 10:00:00 20.2 C 14.51 g/m*3 20.2 C 8.1 km/h
98 16-08-2022 10:05:00 20.4 C 14.51 g/m*3 20.4 C 8.1 km/h
99 16-08-2022 10:10:00 20.6 C 14.5 g/m*3 20.6 C 8.1 km/h
100 16-08-2022 10:15:00 20.8 C 14.49 g/m*3 20.8 C 8.1 km/h
Sensor: Nr:Datum:Temp:Abs-Feuchte:Windchill:Wind:
Aussen-T/F 101 16-08-2022 10:20:00 21 C 14.65 g/m*3 21 C 6.4 km/h
102 16-08-2022 10:25:00 21.2 C 14.64 g/m*3 21.2 C 8.1 km/h
103 16-08-2022 10:30:00 21.3 C 14.54 g/m*3 21.3 C 4.8 km/h
104 16-08-2022 10:35:00 21.6 C 14.6 g/m*3 21.6 C 6.4 km/h
105 16-08-2022 10:40:00 21.7 C 14.69 g/m*3 21.7 C 8.1 km/h
106 16-08-2022 10:45:00 21.9 C 14.67 g/m*3 21.9 C 8.1 km/h
107 16-08-2022 10:50:00 22.2 C 14.72 g/m*3 22.2 C 6.4 km/h
108 16-08-2022 10:55:00 22.4 C 14.89 g/m*3 22.4 C 6.4 km/h
109 16-08-2022 11:00:00 22.6 C 14.66 g/m*3 22.6 C 6.4 km/h
110 16-08-2022 11:05:00 22.8 C 14.83 g/m*3 22.8 C 6.4 km/h
111 16-08-2022 11:10:00 23.1 C 14.88 g/m*3 23.1 C 8.1 km/h
112 16-08-2022 11:15:00 23.4 C 14.93 g/m*3 23.4 C 6.4 km/h
113 16-08-2022 11:20:00 23.7 C 14.76 g/m*3 23.7 C 6.4 km/h
114 16-08-2022 11:25:00 23.9 C 14.71 g/m*3 23.9 C 8.1 km/h
115 16-08-2022 11:30:00 24.2 C 14.74 g/m*3 24.2 C 9.7 km/h
116 16-08-2022 11:35:00 24.4 C 14.69 g/m*3 24.4 C 6.4 km/h
117 16-08-2022 11:40:00 24.6 C 14.85 g/m*3 24.6 C 6.4 km/h
118 16-08-2022 11:45:00 24.8 C 14.8 g/m*3 24.8 C 4.8 km/h
119 16-08-2022 11:50:00 24.9 C 14.65 g/m*3 24.9 C 8.1 km/h
120 16-08-2022 11:55:00 25.2 C 14.67 g/m*3 25.2 C 8.1 km/h
121 16-08-2022 12:00:00 25.3 C 14.51 g/m*3 25.3 C 8.1 km/h
122 16-08-2022 12:05:00 25.6 C 14.76 g/m*3 25.6 C 4.8 km/h
123 16-08-2022 12:10:00 25.7 C 14.6 g/m*3 25.7 C 4.8 km/h
124 16-08-2022 12:15:00 25.7 C 14.84 g/m*3 25.7 C 0 km/h
125 16-08-2022 12:20:00 25.8 C 14.69 g/m*3 25.8 C 4.8 km/h
Sensor: Nr:Datum:Temp:Abs-Feuchte:Windchill:Wind:
Aussen-T/F 126 16-08-2022 12:25:00 26 C 14.61 g/m*3 26 C 4.8 km/h
127 16-08-2022 12:30:00 26.3 C 14.61 g/m*3 26.3 C 6.4 km/h
128 16-08-2022 12:35:00 26.4 C 14.44 g/m*3 26.4 C 6.4 km/h
129 16-08-2022 12:40:00 26.3 C 14.36 g/m*3 26.3 C 6.4 km/h
130 16-08-2022 12:45:00 26.2 C 14.77 g/m*3 26.2 C 3.2 km/h
131 16-08-2022 12:50:00 26.2 C 15.02 g/m*3 26.2 C 1.6 km/h
132 16-08-2022 12:55:00 26.2 C 14.77 g/m*3 26.2 C 1.6 km/h
133 16-08-2022 13:00:00 26.5 C 14.52 g/m*3 26.5 C 1.6 km/h
134 16-08-2022 13:05:00 26.8 C 14.25 g/m*3 26.8 C 8.1 km/h
135 16-08-2022 13:10:00 27 C 14.41 g/m*3 27 C 8.1 km/h
136 16-08-2022 13:15:00 27.4 C 14.21 g/m*3 27.4 C 8.1 km/h
137 16-08-2022 13:20:00 27.7 C 14.44 g/m*3 27.7 C 8.1 km/h
138 16-08-2022 13:25:00 27.9 C 14.33 g/m*3 27.9 C 6.4 km/h
139 16-08-2022 13:30:00 28.1 C 14.22 g/m*3 28.1 C 8.1 km/h
140 16-08-2022 13:35:00 27.9 C 14.06 g/m*3 27.9 C 11.3 km/h
141 16-08-2022 13:40:00 27.8 C 13.99 g/m*3 27.8 C 6.4 km/h
142 16-08-2022 13:45:00 27.7 C 13.91 g/m*3 27.7 C 6.4 km/h
143 16-08-2022 13:50:00 27.6 C 13.83 g/m*3 27.6 C 3.2 km/h
144 16-08-2022 13:55:00 27.5 C 13.76 g/m*3 27.5 C 0 km/h
145 16-08-2022 14:00:00 27.3 C 13.61 g/m*3 27.3 C 0 km/h
146 16-08-2022 14:05:00 27.2 C 13.79 g/m*3 27.2 C 0 km/h
147 16-08-2022 14:10:00 27.3 C 13.87 g/m*3 27.3 C 0 km/h
148 16-08-2022 14:15:00 27.9 C 14.06 g/m*3 27.9 C 4.8 km/h
149 16-08-2022 14:20:00 28.6 C 13.77 g/m*3 28.6 C 6.4 km/h
150 16-08-2022 14:25:00 29.1 C 13.57 g/m*3 29.1 C 4.8 km/h
Sensor: Nr:Datum:Temp:Abs-Feuchte:Windchill:Wind:
Aussen-T/F 151 16-08-2022 14:30:00 29.4 C 13.21 g/m*3 29.4 C 6.4 km/h
152 16-08-2022 14:35:00 29.7 C 13.43 g/m*3 29.7 C 4.8 km/h
153 16-08-2022 14:40:00 29.9 C 13.27 g/m*3 29.9 C 4.8 km/h
154 16-08-2022 14:45:00 30.1 C 12.81 g/m*3 30.1 C 8.1 km/h
155 16-08-2022 14:50:00 30.2 C 12.57 g/m*3 30.2 C 11.3 km/h
156 16-08-2022 14:55:00 30.1 C 12.81 g/m*3 30.1 C 9.7 km/h
157 16-08-2022 15:00:00 30.2 C 12.87 g/m*3 30.2 C 9.7 km/h
158 16-08-2022 15:05:00 30.4 C 12.7 g/m*3 30.4 C 11.3 km/h
159 16-08-2022 15:10:00 30.6 C 12.84 g/m*3 30.6 C 11.3 km/h
160 16-08-2022 15:15:00 30.6 C 12.53 g/m*3 30.6 C 6.4 km/h
161 16-08-2022 15:20:00 30.3 C 12.33 g/m*3 30.3 C 6.4 km/h
162 16-08-2022 15:25:00 30.3 C 12.33 g/m*3 30.3 C 8.1 km/h
163 16-08-2022 15:30:00 30.4 C 12.39 g/m*3 30.4 C 9.7 km/h
164 16-08-2022 15:35:00 30.3 C 12.94 g/m*3 30.3 C 8.1 km/h
165 16-08-2022 15:40:00 30.7 C 12.6 g/m*3 30.7 C 6.4 km/h
166 16-08-2022 15:45:00 31 C 12.16 g/m*3 31 C 8.1 km/h
167 16-08-2022 15:50:00 31.2 C 11.97 g/m*3 31.2 C 9.7 km/h
168 16-08-2022 15:55:00 31.1 C 12.23 g/m*3 31.1 C 6.4 km/h
169 16-08-2022 16:00:00 31 C 11.84 g/m*3 31 C 11.3 km/h
170 16-08-2022 16:05:00 30.9 C 12.1 g/m*3 30.9 C 6.4 km/h
171 16-08-2022 16:10:00 31.2 C 11.97 g/m*3 31.2 C 4.8 km/h
172 16-08-2022 16:15:00 31.3 C 11.71 g/m*3 31.3 C 4.8 km/h
173 16-08-2022 16:20:00 31.1 C 11.58 g/m*3 31.1 C 4.8 km/h
174 16-08-2022 16:25:00 30.8 C 11.71 g/m*3 30.8 C 8.1 km/h
175 16-08-2022 16:30:00 30.6 C 11.59 g/m*3 30.6 C 3.2 km/h
Sensor: Nr:Datum:Temp:Abs-Feuchte:Windchill:Wind:
Aussen-T/F 176 16-08-2022 16:35:00 30.4 C 11.47 g/m*3 30.4 C 3.2 km/h
177 16-08-2022 16:40:00 30.6 C 11.59 g/m*3 30.6 C 0 km/h
178 16-08-2022 16:45:00 30.9 C 11.78 g/m*3 30.9 C 6.4 km/h
179 16-08-2022 16:50:00 31.3 C 11.38 g/m*3 31.3 C 6.4 km/h
180 16-08-2022 16:55:00 31.4 C 11.77 g/m*3 31.4 C 4.8 km/h
181 16-08-2022 17:00:00 31.8 C 11.69 g/m*3 31.8 C 4.8 km/h
182 16-08-2022 17:05:00 32.2 C 11.94 g/m*3 32.2 C 6.4 km/h
183 16-08-2022 17:10:00 32.3 C 11.66 g/m*3 32.3 C 11.3 km/h
184 16-08-2022 17:15:00 32.3 C 11.66 g/m*3 32.3 C 9.7 km/h
185 16-08-2022 17:20:00 32.3 C 11.66 g/m*3 32.3 C 6.4 km/h
186 16-08-2022 17:25:00 32.4 C 11.38 g/m*3 32.4 C 6.4 km/h

Legende:
   Min
   Max


Maximal/Minimal-Werte vom 16.08.2022 - 16.08.2022

Sensor Min Max Avg
Temp
(Aussen-T/F)
15.9 °C
16-08-2022  05:10:00
32.4 °C
16-08-2022  17:25:00
21.97 °C
Abs-Feuchte
(Aussen-T/F)
11.38 g/m*3
16-08-2022  16:50:00
15.02 g/m*3
16-08-2022  12:50:00
13.18 g/m*3
Windchill
(Aussen-T/F)
15.9 C
16-08-2022  05:10:00
32.4 C
16-08-2022  17:25:00
21.85 C

Die Daten stammen von einer Davis Vantage Pro 2 Wetter-Station und werden unter Linux mit der Software wview2wettercgi und aufbereitet. Alle Angaben erfolgen ohne Gewähr für ihre Vollständigkeit oder Richtigkeit.
Kontakt: Rainer Krienke krienke@uni-koblenz.de . Meine Webseiten an der Uni Koblenz oder privat.
Version: $Revision: 0.78 $